Time;durP1;ratioP1;P1;durP2;ratioP2;P2;SDS_P1;SDS_P2;PMS_P1;PMS_P2;Temp;Humidity;BMP_temperature;BMP_pressure;BME280_temperature;BME280_humidity;BME280_pressure;Samples;Min_cycle;Max_cycle;Signal;HPM_P1;HPM_P2
2022/01/15 00:00:27;;;;;;;19.02;13.80;;;;;;;;;;10362212;28;20107;-57
2022/01/15 00:05:25;;;;;;;32.28;20.70;;;;;;;;;;10362259;28;20056;-56
2022/01/15 00:10:26;;;;;;;26.83;17.77;;;;;;;;;;10361972;28;20051;-55
2022/01/15 00:15:29;;;;;;;32.30;22.17;;;;;;;;;;10360890;28;20119;-56
2022/01/15 00:20:28;;;;;;;30.65;22.20;;;;;;;;;;10361558;28;20504;-55
2022/01/15 00:25:28;;;;;;;23.88;14.75;;;;;;;;;;10361190;28;20212;-56
2022/01/15 00:30:28;;;;;;;21.23;15.95;;;;;;;;;;10356289;28;20041;-57
2022/01/15 00:35:27;;;;;;;25.67;21.27;;;;;;;;;;10341308;28;20084;-56
2022/01/15 00:40:25;;;;;;;22.52;14.48;;;;;;;;;;10343423;28;20045;-55
2022/01/15 00:45:24;;;;;;;19.75;14.10;;;;;;;;;;10319535;28;20409;-55
2022/01/15 00:50:23;;;;;;;24.77;17.15;;;;;;;;;;10354331;28;20071;-56
2022/01/15 00:55:22;;;;;;;30.25;19.30;;;;;;;;;;10360017;28;20079;-55
2022/01/15 01:00:22;;;;;;;27.40;20.20;;;;;;;;;;10360126;28;20052;-56
2022/01/15 01:05:21;;;;;;;20.27;15.43;;;;;;;;;;10323334;28;20437;-55
2022/01/15 01:10:48;;;;;;;36.45;26.13;;;;;;;;;;10317596;28;20036;-55
2022/01/15 01:21:22;;;;;;;44.92;28.88;;;;;;;;;;10333254;28;20074;-58
2022/01/15 01:26:29;;;;;;;31.30;21.95;;;;;;;;;;10326533;28;20056;-57
2022/01/15 01:31:35;;;;;;;39.70;25.98;;;;;;;;;;10332340;28;20051;-55
2022/01/15 01:36:42;;;;;;;41.88;29.15;;;;;;;;;;10359052;28;20105;-56
2022/01/15 01:41:48;;;;;;;28.92;19.73;;;;;;;;;;10358485;28;20475;-57
2022/01/15 01:46:51;;;;;;;20.42;14.38;;;;;;;;;;10335653;28;20036;-55
2022/01/15 01:51:50;;;;;;;21.02;14.52;;;;;;;;;;10316881;28;20056;-55
2022/01/15 01:56:50;;;;;;;17.63;12.88;;;;;;;;;;10317179;28;20082;-54
2022/01/15 02:01:49;;;;;;;20.98;13.85;;;;;;;;;;10317055;28;20181;-52
2022/01/15 02:06:48;;;;;;;21.85;15.85;;;;;;;;;;10317124;28;20274;-52
2022/01/15 02:11:46;;;;;;;21.38;15.02;;;;;;;;;;10316875;28;20390;-56
2022/01/15 02:16:45;;;;;;;18.80;12.45;;;;;;;;;;10316731;28;20079;-54
2022/01/15 02:27:01;;;;;;;18.10;13.07;;;;;;;;;;10315555;28;20457;-55
2022/01/15 02:31:59;;;;;;;19.90;13.20;;;;;;;;;;10316499;28;20055;-55
2022/01/15 02:36:59;;;;;;;17.10;12.88;;;;;;;;;;10320710;28;20084;-55
2022/01/15 02:41:57;;;;;;;20.90;12.73;;;;;;;;;;10324727;28;20041;-57
2022/01/15 02:52:12;;;;;;;19.90;13.95;;;;;;;;;;10332748;28;20509;-56
2022/01/15 02:57:10;;;;;;;17.80;13.25;;;;;;;;;;10364080;28;20490;-56
2022/01/15 03:02:08;;;;;;;20.17;13.85;;;;;;;;;;10365165;28;20076;-54
2022/01/15 03:07:07;;;;;;;15.88;11.63;;;;;;;;;;10364777;28;20087;-57
2022/01/15 03:12:07;;;;;;;22.38;15.30;;;;;;;;;;10364578;28;20390;-55
2022/01/15 03:17:05;;;;;;;17.98;12.63;;;;;;;;;;10364417;28;20086;-56
2022/01/15 03:22:11;;;;;;;22.85;14.63;;;;;;;;;;10364351;28;20532;-52
2022/01/15 03:27:11;;;;;;;14.90;11.57;;;;;;;;;;10347615;28;20049;-55
2022/01/15 03:32:09;;;;;;;18.58;12.73;;;;;;;;;;10322880;28;20449;-55
2022/01/15 03:37:07;;;;;;;18.98;12.80;;;;;;;;;;10322668;28;20091;-56
2022/01/15 03:42:11;;;;;;;17.27;12.52;;;;;;;;;;10322522;28;20069;-56
2022/01/15 03:47:11;;;;;;;21.05;14.02;;;;;;;;;;10321576;28;20083;-56
2022/01/15 03:52:10;;;;;;;20.35;14.10;;;;;;;;;;10332717;28;20080;-58
2022/01/15 03:57:08;;;;;;;17.77;13.35;;;;;;;;;;10345261;28;20477;-56
2022/01/15 04:02:06;;;;;;;17.60;12.85;;;;;;;;;;10321547;28;20486;-55
2022/01/15 04:07:06;;;;;;;21.33;12.30;;;;;;;;;;10340842;28;20048;-54
2022/01/15 04:12:04;;;;;;;19.95;13.38;;;;;;;;;;10361011;28;20044;-57
2022/01/15 04:17:03;;;;;;;16.55;12.27;;;;;;;;;;10361926;28;20135;-55
2022/01/15 04:22:01;;;;;;;16.25;11.43;;;;;;;;;;10335845;28;20425;-54
2022/01/15 04:27:01;;;;;;;21.38;13.45;;;;;;;;;;10319490;28;20064;-56
2022/01/15 04:32:00;;;;;;;17.25;11.70;;;;;;;;;;10320419;28;20080;-54
2022/01/15 04:37:08;;;;;;;16.90;11.57;;;;;;;;;;10330102;28;20059;-56
2022/01/15 04:42:08;;;;;;;17.25;12.00;;;;;;;;;;10333301;28;20425;-54
2022/01/15 04:47:06;;;;;;;23.15;17.45;;;;;;;;;;10358191;28;20456;-56
2022/01/15 04:52:04;;;;;;;29.77;20.63;;;;;;;;;;10318871;28;20083;-53
2022/01/15 04:57:03;;;;;;;24.08;18.05;;;;;;;;;;10338592;28;20080;-55
2022/01/15 05:02:03;;;;;;;27.02;18.20;;;;;;;;;;10346373;28;20051;-55
2022/01/15 05:07:01;;;;;;;23.00;16.25;;;;;;;;;;10358741;28;20052;-53
2022/01/15 05:12:03;;;;;;;22.35;15.45;;;;;;;;;;10318895;28;20051;-57
2022/01/15 05:17:03;;;;;;;21.75;15.95;;;;;;;;;;10331292;28;20083;-56
2022/01/15 05:22:01;;;;;;;26.17;18.20;;;;;;;;;;10332500;28;20072;-58
2022/01/15 05:26:59;;;;;;;20.77;15.52;;;;;;;;;;10332237;28;20505;-54
2022/01/15 05:31:57;;;;;;;22.30;15.38;;;;;;;;;;10349654;28;20036;-56
2022/01/15 05:37:00;;;;;;;29.40;18.75;;;;;;;;;;10358907;28;20470;-56
2022/01/15 05:41:58;;;;;;;22.13;15.38;;;;;;;;;;10358925;28;20440;-57
2022/01/15 05:46:56;;;;;;;22.83;16.13;;;;;;;;;;10319164;28;20558;-57
2022/01/15 05:51:55;;;;;;;20.70;15.40;;;;;;;;;;10316545;28;20056;-57
2022/01/15 05:56:54;;;;;;;22.13;14.63;;;;;;;;;;10317065;28;20466;-56
2022/01/15 06:01:53;;;;;;;24.67;16.98;;;;;;;;;;10317106;28;20048;-54
2022/01/15 06:06:51;;;;;;;29.55;18.75;;;;;;;;;;10320675;28;20529;-56
2022/01/15 06:11:55;;;;;;;30.48;19.67;;;;;;;;;;10345049;28;20564;-57
2022/01/15 06:16:54;;;;;;;24.27;17.70;;;;;;;;;;10325566;28;20064;-57
2022/01/15 06:21:53;;;;;;;44.08;35.50;;;;;;;;;;10335925;28;20041;-55
2022/01/15 06:26:51;;;;;;;30.95;24.27;;;;;;;;;;10336775;28;20064;-56
2022/01/15 06:31:50;;;;;;;59.50;36.58;;;;;;;;;;10334641;28;20064;-54
2022/01/15 06:36:49;;;;;;;31.77;23.23;;;;;;;;;;10333990;28;20522;-57
2022/01/15 06:41:48;;;;;;;50.03;30.48;;;;;;;;;;10336893;28;20074;-54
2022/01/15 06:46:46;;;;;;;36.90;25.88;;;;;;;;;;10335044;28;20141;-56
2022/01/15 06:51:44;;;;;;;24.10;16.40;;;;;;;;;;10340213;28;20465;-55
2022/01/15 06:56:44;;;;;;;28.55;20.02;;;;;;;;;;10313457;28;20080;-57
2022/01/15 07:01:42;;;;;;;24.13;17.00;;;;;;;;;;10317319;28;20087;-58
2022/01/15 07:06:40;;;;;;;26.20;17.85;;;;;;;;;;10341714;28;20071;-58
2022/01/15 07:11:39;;;;;;;39.83;22.60;;;;;;;;;;10330487;28;20487;-57
2022/01/15 07:16:38;;;;;;;45.65;31.08;;;;;;;;;;10344281;28;20113;-56
2022/01/15 07:21:37;;;;;;;32.63;24.95;;;;;;;;;;10349741;28;20466;-56
2022/01/15 07:26:35;;;;;;;38.80;26.83;;;;;;;;;;10342124;28;20028;-55
2022/01/15 07:31:33;;;;;;;31.98;21.20;;;;;;;;;;10319655;28;20075;-54
2022/01/15 07:36:33;;;;;;;33.08;23.27;;;;;;;;;;10319381;28;20068;-54
2022/01/15 07:41:31;;;;;;;41.78;30.58;;;;;;;;;;10316942;28;20493;-57
2022/01/15 07:46:33;;;;;;;38.30;26.85;;;;;;;;;;10312221;28;20088;-55
2022/01/15 07:51:32;;;;;;;51.58;34.50;;;;;;;;;;10315559;28;20076;-56
2022/01/15 07:56:31;;;;;;;33.28;23.25;;;;;;;;;;10319900;28;20084;-57
2022/01/15 08:01:29;;;;;;;35.70;22.70;;;;;;;;;;10321094;28;20490;-56
2022/01/15 08:06:28;;;;;;;28.80;20.73;;;;;;;;;;10320171;28;20087;-57
2022/01/15 08:11:27;;;;;;;33.83;24.52;;;;;;;;;;10318539;28;20486;-57
2022/01/15 08:16:26;;;;;;;45.17;32.67;;;;;;;;;;10318284;28;20048;-54
2022/01/15 08:21:24;;;;;;;30.90;21.65;;;;;;;;;;10318480;28;20071;-58
2022/01/15 08:26:22;;;;;;;32.45;22.30;;;;;;;;;;10319963;28;20048;-58
2022/01/15 08:31:22;;;;;;;35.42;23.90;;;;;;;;;;10324637;28;20032;-59
2022/01/15 08:36:20;;;;;;;36.85;25.85;;;;;;;;;;10351563;28;20041;-58
2022/01/15 08:41:19;;;;;;;46.92;30.98;;;;;;;;;;10317579;28;20072;-56
2022/01/15 08:46:18;;;;;;;67.55;47.03;;;;;;;;;;10323150;28;20095;-53
2022/01/15 08:51:18;;;;;;;42.10;31.70;;;;;;;;;;10336448;28;20071;-54
2022/01/15 08:56:17;;;;;;;33.17;23.33;;;;;;;;;;10339101;28;20417;-56
2022/01/15 09:01:15;;;;;;;31.73;23.35;;;;;;;;;;10337837;28;20078;-56
2022/01/15 09:06:14;;;;;;;27.55;19.85;;;;;;;;;;10335594;28;20060;-52
2022/01/15 09:11:15;;;;;;;38.80;25.58;;;;;;;;;;10337439;28;20074;-60
2022/01/15 09:16:15;;;;;;;34.05;23.55;;;;;;;;;;10346762;28;20416;-58
2022/01/15 09:21:13;;;;;;;36.30;27.65;;;;;;;;;;10347059;28;20083;-57
2022/01/15 09:26:19;;;;;;;42.97;29.15;;;;;;;;;;10327606;28;20475;-58
2022/01/15 09:31:19;;;;;;;34.22;21.52;;;;;;;;;;10354399;28;20557;-55
2022/01/15 09:36:17;;;;;;;33.42;23.27;;;;;;;;;;10343782;28;20040;-56
2022/01/15 09:41:16;;;;;;;35.17;24.27;;;;;;;;;;10330594;28;20480;-56
2022/01/15 09:46:16;;;;;;;36.40;24.05;;;;;;;;;;10329925;28;20078;-54
2022/01/15 09:51:15;;;;;;;77.40;51.53;;;;;;;;;;10318450;28;20053;-56
2022/01/15 09:56:14;;;;;;;32.85;25.50;;;;;;;;;;10315640;28;20056;-57
2022/01/15 10:01:12;;;;;;;38.25;25.38;;;;;;;;;;10314542;28;20111;-52
2022/01/15 10:06:11;;;;;;;35.53;23.60;;;;;;;;;;10312933;28;20059;-52
2022/01/15 10:11:11;;;;;;;38.13;22.00;;;;;;;;;;10307108;28;20121;-51
2022/01/15 10:16:13;;;;;;;41.58;33.03;;;;;;;;;;10307575;28;20255;-54
2022/01/15 10:21:12;;;;;;;37.85;27.58;;;;;;;;;;10306698;28;20491;-57
2022/01/15 10:26:13;;;;;;;37.92;24.83;;;;;;;;;;10313136;28;20048;-53
2022/01/15 10:31:17;;;;;;;47.97;34.90;;;;;;;;;;10311900;28;20044;-53
2022/01/15 10:36:20;;;;;;;25.85;19.88;;;;;;;;;;10310574;28;20040;-50
2022/01/15 10:41:33;;;;;;;35.50;23.67;;;;;;;;;;10311330;28;20080;-54
2022/01/15 10:46:35;;;;;;;234.45;122.40;;;;;;;;;;10315077;28;20052;-57
2022/01/15 10:51:33;;;;;;;151.50;78.68;;;;;;;;;;10314022;28;20048;-57
2022/01/15 10:56:33;;;;;;;97.78;55.47;;;;;;;;;;10316943;28;20045;-52
2022/01/15 11:01:31;;;;;;;78.22;47.72;;;;;;;;;;10322791;28;20083;-56
2022/01/15 11:06:35;;;;;;;57.75;34.67;;;;;;;;;;10322256;28;20069;-54
2022/01/15 11:11:35;;;;;;;31.55;20.92;;;;;;;;;;10321467;28;20415;-54
2022/01/15 11:16:33;;;;;;;40.65;28.48;;;;;;;;;;10321962;28;20052;-54
2022/01/15 11:21:32;;;;;;;19.52;15.27;;;;;;;;;;10319586;28;20079;-55
2022/01/15 11:26:35;;;;;;;24.40;17.00;;;;;;;;;;10322571;28;20075;-55
2022/01/15 11:31:36;;;;;;;30.08;19.45;;;;;;;;;;10318867;28;20090;-55
2022/01/15 11:36:36;;;;;;;24.70;16.08;;;;;;;;;;10318615;28;20074;-56
2022/01/15 11:41:38;;;;;;;24.52;14.90;;;;;;;;;;10319559;28;20079;-55
2022/01/15 11:46:42;;;;;;;20.23;13.05;;;;;;;;;;10318390;28;20072;-55
2022/01/15 11:51:41;;;;;;;20.63;15.05;;;;;;;;;;10315958;28;20087;-54
2022/01/15 11:56:42;;;;;;;18.30;12.80;;;;;;;;;;10320768;28;20419;-56
2022/01/15 12:01:43;;;;;;;18.67;14.15;;;;;;;;;;10320181;28;20071;-56
2022/01/15 12:06:56;;;;;;;13.95;10.30;;;;;;;;;;10331105;28;20068;-57
2022/01/15 12:11:54;;;;;;;10.80;8.65;;;;;;;;;;10327777;28;20098;-54
2022/01/15 12:16:54;;;;;;;15.00;10.10;;;;;;;;;;10318867;28;20076;-56
2022/01/15 12:21:55;;;;;;;19.35;11.23;;;;;;;;;;10320637;28;20490;-58
2022/01/15 12:27:00;;;;;;;14.40;9.98;;;;;;;;;;10320438;28;20466;-57
2022/01/15 12:32:00;;;;;;;51.40;29.53;;;;;;;;;;10330200;28;20083;-57
2022/01/15 12:36:58;;;;;;;12.43;7.72;;;;;;;;;;10359137;28;20075;-58
2022/01/15 12:41:56;;;;;;;18.42;10.65;;;;;;;;;;10359521;28;20505;-58
2022/01/15 12:46:55;;;;;;;15.20;9.65;;;;;;;;;;10346411;28;20044;-55
2022/01/15 12:52:08;;;;;;;13.88;9.45;;;;;;;;;;10356078;28;20056;-58
2022/01/15 12:57:08;;;;;;;12.70;9.13;;;;;;;;;;10344648;28;20079;-55
2022/01/15 13:02:07;;;;;;;37.70;17.63;;;;;;;;;;10358285;28;20080;-56
2022/01/15 13:07:05;;;;;;;44.03;19.02;;;;;;;;;;10342883;28;20127;-56
2022/01/15 13:12:04;;;;;;;32.63;16.58;;;;;;;;;;10357404;28;20481;-57
2022/01/15 13:17:03;;;;;;;37.65;20.42;;;;;;;;;;10343916;28;20055;-57
2022/01/15 13:22:02;;;;;;;33.15;17.33;;;;;;;;;;10355283;28;20513;-56
2022/01/15 13:27:01;;;;;;;36.78;19.42;;;;;;;;;;10344017;28;20060;-54
2022/01/15 13:32:00;;;;;;;27.15;16.80;;;;;;;;;;10355795;28;20044;-58
2022/01/15 13:37:09;;;;;;;17.90;11.13;;;;;;;;;;10343873;28;20461;-55
2022/01/15 13:42:15;;;;;;;23.13;12.88;;;;;;;;;;10356409;28;20083;-55
2022/01/15 13:47:14;;;;;;;22.00;11.48;;;;;;;;;;10341037;28;20080;-57
2022/01/15 13:57:30;;;;;;;24.10;14.52;;;;;;;;;;10342783;27;20049;-58
2022/01/15 14:02:29;;;;;;;24.85;16.42;;;;;;;;;;10438547;27;20071;-57
2022/01/15 14:07:28;;;;;;;20.48;13.57;;;;;;;;;;10438963;27;20264;-57
2022/01/15 14:12:27;;;;;;;16.13;9.48;;;;;;;;;;10438577;27;20063;-56
2022/01/15 14:17:26;;;;;;;17.83;12.80;;;;;;;;;;10438123;27;20512;-57
2022/01/15 14:22:25;;;;;;;32.60;18.23;;;;;;;;;;10437559;27;20471;-53
2022/01/15 14:27:25;;;;;;;31.92;18.00;;;;;;;;;;10437183;28;20423;-56
2022/01/15 14:32:24;;;;;;;34.67;19.38;;;;;;;;;;10440725;27;20046;-56
2022/01/15 14:37:23;;;;;;;22.27;12.75;;;;;;;;;;10445838;27;20062;-55
2022/01/15 14:42:23;;;;;;;40.60;24.25;;;;;;;;;;10445467;27;20075;-54
2022/01/15 14:47:22;;;;;;;46.38;27.75;;;;;;;;;;10445675;27;20055;-56
2022/01/15 14:52:21;;;;;;;46.65;30.67;;;;;;;;;;10445651;27;20078;-56
2022/01/15 14:57:19;;;;;;;28.73;18.45;;;;;;;;;;10445826;27;20043;-56
2022/01/15 15:02:17;;;;;;;54.10;35.33;;;;;;;;;;10444814;27;20534;-57
2022/01/15 15:07:17;;;;;;;29.23;22.58;;;;;;;;;;10445035;27;20078;-54
2022/01/15 15:12:15;;;;;;;47.90;29.05;;;;;;;;;;10428335;27;20075;-57
2022/01/15 15:17:13;;;;;;;136.57;79.65;;;;;;;;;;10444390;27;20042;-55
2022/01/15 15:22:12;;;;;;;81.63;43.95;;;;;;;;;;10426848;27;20082;-58
2022/01/15 15:27:14;;;;;;;62.72;34.38;;;;;;;;;;10442645;27;20070;-58
2022/01/15 15:32:12;;;;;;;57.75;33.47;;;;;;;;;;10425742;27;20075;-54
2022/01/15 15:37:12;;;;;;;68.10;38.90;;;;;;;;;;10444145;27;20067;-56
2022/01/15 15:42:12;;;;;;;36.55;22.23;;;;;;;;;;10443751;27;20469;-56
2022/01/15 15:47:10;;;;;;;29.85;21.70;;;;;;;;;;10443729;27;20078;-57
2022/01/15 15:52:09;;;;;;;66.57;41.00;;;;;;;;;;10442646;27;20059;-57
2022/01/15 15:57:10;;;;;;;80.63;43.15;;;;;;;;;;10442165;27;20039;-57
2022/01/15 16:02:11;;;;;;;109.07;63.03;;;;;;;;;;10441482;27;20516;-53
2022/01/15 16:07:11;;;;;;;43.00;22.95;;;;;;;;;;10441980;27;20458;-56
2022/01/15 16:12:09;;;;;;;28.58;17.17;;;;;;;;;;10441979;27;20074;-56
2022/01/15 16:17:07;;;;;;;25.67;16.55;;;;;;;;;;10441519;27;20086;-56
2022/01/15 16:22:07;;;;;;;96.72;43.65;;;;;;;;;;10442175;27;20079;-57
2022/01/15 16:27:05;;;;;;;79.10;44.03;;;;;;;;;;10441636;27;20160;-56
2022/01/15 16:32:04;;;;;;;226.40;124.70;;;;;;;;;;10441576;27;20043;-57
2022/01/15 16:37:03;;;;;;;42.22;25.85;;;;;;;;;;10441493;27;20724;-56
2022/01/15 16:42:02;;;;;;;15.05;9.30;;;;;;;;;;10440640;27;20485;-56
2022/01/15 16:47:01;;;;;;;23.92;17.95;;;;;;;;;;10441231;27;20066;-56
2022/01/15 16:52:02;;;;;;;21.23;14.73;;;;;;;;;;10439416;27;20539;-53
2022/01/15 16:57:02;;;;;;;21.55;12.85;;;;;;;;;;10439064;27;20075;-56
2022/01/15 17:02:01;;;;;;;41.50;28.45;;;;;;;;;;10440172;27;20495;-54
2022/01/15 17:06:59;;;;;;;23.58;17.40;;;;;;;;;;10439654;27;20085;-54
2022/01/15 17:11:58;;;;;;;22.50;13.60;;;;;;;;;;10440235;27;20054;-55
2022/01/15 17:16:57;;;;;;;58.40;33.85;;;;;;;;;;10439096;27;20078;-56
2022/01/15 17:21:56;;;;;;;172.57;121.03;;;;;;;;;;10439677;27;20083;-53
2022/01/15 17:26:54;;;;;;;96.80;53.85;;;;;;;;;;10435766;27;20065;-56
2022/01/15 17:31:53;;;;;;;140.18;88.28;;;;;;;;;;10433364;27;20086;-56
2022/01/15 17:36:52;;;;;;;59.83;42.00;;;;;;;;;;10430951;27;20071;-52
2022/01/15 17:41:51;;;;;;;119.20;65.38;;;;;;;;;;10434018;27;20428;-53
2022/01/15 17:46:49;;;;;;;31.77;20.65;;;;;;;;;;10434515;27;20453;-56
2022/01/15 17:51:47;;;;;;;58.47;32.35;;;;;;;;;;10436627;27;20066;-56
2022/01/15 17:56:47;;;;;;;27.25;18.70;;;;;;;;;;10436740;27;20051;-56
2022/01/15 18:01:46;;;;;;;64.32;35.25;;;;;;;;;;10436565;27;20086;-55
2022/01/15 18:06:47;;;;;;;28.00;17.75;;;;;;;;;;10435859;27;20057;-54
2022/01/15 18:11:47;;;;;;;144.63;75.10;;;;;;;;;;10436677;27;20109;-54
2022/01/15 18:16:45;;;;;;;73.10;40.30;;;;;;;;;;10436226;27;20053;-54
2022/01/15 18:21:44;;;;;;;74.05;46.85;;;;;;;;;;10438040;27;20464;-54
2022/01/15 18:26:43;;;;;;;68.80;42.90;;;;;;;;;;10437128;27;20092;-52
2022/01/15 18:31:42;;;;;;;54.60;35.80;;;;;;;;;;10436929;28;20082;-55
2022/01/15 18:36:41;;;;;;;52.13;30.13;;;;;;;;;;10436637;28;20073;-55
2022/01/15 18:41:39;;;;;;;96.47;63.90;;;;;;;;;;10435836;28;20337;-55
2022/01/15 18:46:38;;;;;;;134.48;77.57;;;;;;;;;;10436942;28;20046;-55
2022/01/15 18:51:38;;;;;;;272.70;149.07;;;;;;;;;;10436361;28;20385;-54
2022/01/15 18:56:36;;;;;;;57.83;35.15;;;;;;;;;;10436523;28;20547;-53
2022/01/15 19:01:35;;;;;;;64.60;35.63;;;;;;;;;;10435454;28;20316;-56
2022/01/15 19:06:33;;;;;;;120.65;77.07;;;;;;;;;;10436768;28;20491;-56
2022/01/15 19:11:33;;;;;;;77.55;42.83;;;;;;;;;;10436808;28;20066;-55
2022/01/15 19:16:33;;;;;;;68.30;38.88;;;;;;;;;;10436909;27;20627;-54
2022/01/15 19:21:31;;;;;;;53.03;30.70;;;;;;;;;;10444579;27;20074;-55
2022/01/15 19:26:29;;;;;;;52.97;30.17;;;;;;;;;;10444229;27;20077;-55
2022/01/15 19:31:29;;;;;;;50.20;31.67;;;;;;;;;;10443829;27;20039;-54
2022/01/15 19:36:27;;;;;;;31.50;19.67;;;;;;;;;;10443676;27;20101;-55
2022/01/15 19:41:26;;;;;;;67.53;36.20;;;;;;;;;;10442800;27;20075;-56
2022/01/15 19:46:24;;;;;;;38.95;21.00;;;;;;;;;;10443481;27;20069;-55
2022/01/15 19:51:24;;;;;;;42.83;24.80;;;;;;;;;;10441272;27;20078;-55
2022/01/15 19:56:23;;;;;;;83.78;46.65;;;;;;;;;;10441958;27;20492;-52
2022/01/15 20:01:21;;;;;;;28.45;18.75;;;;;;;;;;10441711;27;20128;-56
2022/01/15 20:06:20;;;;;;;43.33;26.10;;;;;;;;;;10442275;27;20463;-55
2022/01/15 20:11:19;;;;;;;38.40;23.77;;;;;;;;;;10441917;27;20527;-55
2022/01/15 20:16:18;;;;;;;74.10;41.75;;;;;;;;;;10441616;27;20063;-55
2022/01/15 20:21:16;;;;;;;90.07;47.92;;;;;;;;;;10441118;27;20051;-56
2022/01/15 20:26:14;;;;;;;85.82;45.72;;;;;;;;;;10439904;27;20461;-56
2022/01/15 20:31:15;;;;;;;132.15;72.32;;;;;;;;;;10439618;27;20102;-54
2022/01/15 20:36:13;;;;;;;113.85;59.95;;;;;;;;;;10424410;27;20077;-55
2022/01/15 20:41:12;;;;;;;144.00;73.55;;;;;;;;;;10440496;27;20083;-56
2022/01/15 20:46:10;;;;;;;85.97;49.28;;;;;;;;;;10440329;27;20078;-55
2022/01/15 20:51:10;;;;;;;63.72;39.03;;;;;;;;;;10441461;27;20078;-51
2022/01/15 20:56:08;;;;;;;56.58;30.55;;;;;;;;;;10439702;27;20078;-56
2022/01/15 21:01:06;;;;;;;102.88;60.88;;;;;;;;;;10440716;27;20067;-54
2022/01/15 21:06:05;;;;;;;42.58;25.45;;;;;;;;;;10439943;27;20437;-55
2022/01/15 21:11:05;;;;;;;22.77;14.93;;;;;;;;;;10439753;27;20510;-55
2022/01/15 21:16:04;;;;;;;21.33;13.07;;;;;;;;;;10439145;27;20076;-55
2022/01/15 21:21:02;;;;;;;21.50;13.88;;;;;;;;;;10437011;27;20077;-54
2022/01/15 21:26:04;;;;;;;26.52;16.35;;;;;;;;;;10437506;27;20297;-56
2022/01/15 21:31:03;;;;;;;19.38;12.88;;;;;;;;;;10437545;27;20092;-55
2022/01/15 21:36:01;;;;;;;18.15;11.90;;;;;;;;;;10437493;27;20475;-56
2022/01/15 21:41:00;;;;;;;20.95;13.38;;;;;;;;;;10437085;27;20067;-54
2022/01/15 21:45:58;;;;;;;25.20;15.60;;;;;;;;;;10435296;27;20067;-55
2022/01/15 21:50:58;;;;;;;56.00;32.40;;;;;;;;;;10436769;27;20081;-50
2022/01/15 21:55:56;;;;;;;79.00;42.00;;;;;;;;;;10407685;27;20468;-51
2022/01/15 22:00:54;;;;;;;54.08;29.20;;;;;;;;;;10421246;27;20043;-53
2022/01/15 22:05:54;;;;;;;25.33;12.25;;;;;;;;;;10424323;27;20054;-56
2022/01/15 22:10:58;;;;;;;109.43;48.42;;;;;;;;;;10429217;27;20063;-50
2022/01/15 22:15:56;;;;;;;160.75;65.63;;;;;;;;;;10439599;27;20043;-53
2022/01/15 22:20:55;;;;;;;108.28;46.28;;;;;;;;;;10438725;27;20062;-52
2022/01/15 22:26:16;;;;;;;162.40;67.40;;;;;;;;;;10421488;27;20070;-54
2022/01/15 22:31:14;;;;;;;57.70;22.35;;;;;;;;;;10438105;28;20039;-54
2022/01/15 22:36:12;;;;;;;50.40;23.25;;;;;;;;;;10421922;28;20051;-54
2022/01/15 22:41:11;;;;;;;16.52;10.35;;;;;;;;;;10436853;28;20038;-54
2022/01/15 22:46:10;;;;;;;125.22;50.53;;;;;;;;;;10437807;28;20062;-54
2022/01/15 22:51:09;;;;;;;470.98;209.50;;;;;;;;;;10438083;27;20094;-53
2022/01/15 22:56:07;;;;;;;72.85;32.60;;;;;;;;;;10446583;27;20456;-55
2022/01/15 23:01:06;;;;;;;71.38;35.67;;;;;;;;;;10446047;27;20063;-52
2022/01/15 23:06:07;;;;;;;157.68;66.63;;;;;;;;;;10446328;27;20070;-56
2022/01/15 23:11:16;;;;;;;34.28;20.70;;;;;;;;;;10446430;27;20054;-53
2022/01/15 23:16:32;;;;;;;104.03;47.72;;;;;;;;;;10429930;27;20067;-54
2022/01/15 23:21:33;;;;;;;70.55;37.22;;;;;;;;;;10445917;27;20050;-55
2022/01/15 23:26:33;;;;;;;31.70;20.33;;;;;;;;;;10445373;27;20066;-54
2022/01/15 23:31:32;;;;;;;28.40;18.75;;;;;;;;;;10426302;27;20074;-56
2022/01/15 23:36:31;;;;;;;46.15;27.00;;;;;;;;;;10444510;27;20047;-55
2022/01/15 23:41:29;;;;;;;125.93;54.47;;;;;;;;;;10444337;27;20444;-53
2022/01/15 23:46:44;;;;;;;165.32;76.72;;;;;;;;;;10443741;27;20067;-56
2022/01/15 23:51:44;;;;;;;94.72;42.50;;;;;;;;;;10444097;27;20553;-55
2022/01/15 23:56:43;;;;;;;22.98;15.70;;;;;;;;;;10445136;27;20062;-55
